x

Monterey - 27nm Wnw Of Monterey, Ca (46042) Wave Buoy

7:50am - Mon 23rd Oct 2017 All times are PDT. -7 hours from GMT.

  • Sig Wave height 8.9ft
  • Swell Direction
  • Peak Period 12s
  • Average Period 9s
  • Wind
    4mph, 4mph gusts
  • Sea Temp 55°f
  • Air Temp 57°f
  • Sea Pressure 1022.8mb
  • Monterey - 27nm Wnw Of Monterey, Ca
  • Monterey - 27nm Wnw Of Monterey, Ca

More Historic Weather Station data

Upgrade to MSW Pro to gain access to the past 30 days of data for over 8000 Wavebouys and Weather Stations around the globe.

Join

Comparision Forecast

View Surf forecast
   
Mon 10/23 7:50am 9ft 12s 9s 4 4 mph 1022.8mb 55f 57f
6:50am 9ft 12s 9s 7 9 mph 1022.7mb 55f 57f
5:50am 11ft 12s 9s 7 11 mph 1022.7mb 55f 57f
4:50am 11.5ft 12s 9s 7 9 mph 1022.8mb 55f 57f
3:50am 9.5ft 12s 9s 7 9 mph 1022.9mb 56f 57f
2:50am 11.5ft 12s 9s 7 9 mph 1023.3mb 56f 57f
1:50am 10ft 12s 9s 7 9 mph 1023.5mb 56f 57f
12:50am 12ft 12s 9s 11 13 mph 1023.7mb 56f 57f
Sun 10/22 11:50pm 10ft 13s 9s 11 13 mph 1024.2mb 56f 57f
10:50pm 10ft 12s 8s 13 16 mph 1024.4mb 55f 58f
9:50pm 10ft 11s 8s 18 22 mph 1023.9mb 55f 58f
8:50pm 9ft 13s 7s 20 25 mph 1023.7mb 55f 58f
7:50pm 9.5ft 13s 7s 20 25 mph 1023.4mb 55f 58f
6:50pm 10ft 12s 7s 22 27 mph 1023mb 55f 58f
5:50pm 10.5ft 12s 8s 22 29 mph 1023.1mb 55f 59f
4:50pm 10ft 13s 8s 25 27 mph 1023.4mb 56f 59f
3:50pm 11ft 12s 8s 22 29 mph 1023.7mb 56f 59f
2:50pm 10ft 13s 8s 20 25 mph 1024.3mb 55f 59f
1:50pm 10.5ft 12s 9s 18 20 mph 1025.1mb 55f 58f
12:50pm 10.5ft 13s 9s 18 20 mph 1026.1mb 55f 58f
11:50am 9ft 13s 8s 16 18 mph 1026.4mb 55f 58f
10:50am 10ft 13s 9s 16 20 mph 1026.6mb 55f 57f
9:50am 9.5ft 13s 9s 16 18 mph 1027.1mb 55f 57f
7:50am 10ft 12s 9s 9 11 mph 1026.3mb 55f 55f
6:50am 9ft 11s 9s 9 11 mph 1025.7mb 55f 55f
5:50am 9.5ft 13s 9s 11 16 mph 1025.6mb 55f 55f
4:50am 11ft 13s 9s 16 18 mph 1025.6mb 55f 56f
3:50am 11ft 13s 10s 18 20 mph 1025.7mb 55f 56f
2:50am 10.5ft 14s 10s 16 18 mph 1026mb 55f 56f
1:50am 12ft 13s 10s 13 16 mph 1026.1mb 55f 57f
12:50am 11ft 14s 10s 16 18 mph 1025.2mb 55f 57f
Sat 10/21 11:50pm 9ft 13s 9s 13 16 mph 1025.3mb 55f 57f
10:50pm 10.5ft 14s 10s 13 16 mph 1025.6mb 55f 57f
9:50pm 10ft 14s 9s 13 16 mph 1025.6mb 55f 57f
8:50pm 10ft 14s 8s 13 18 mph 1025.2mb 55f 56f
7:50pm 11ft 13s 9s 16 18 mph 1024.8mb 55f 58f
6:50pm 12.5ft 15s 10s 13 18 mph 1024.2mb 55f 58f
5:50pm 14ft 14s 10s 16 18 mph 1023.7mb 55f 58f
4:50pm 12ft 15s 9s 18 20 mph 1023.4mb 55f 58f
3:50pm 12.5ft 14s 9s 18 22 mph 1023.2mb 55f 58f
2:50pm 13.5ft 15s 10s 20 25 mph 1023.1mb 55f 58f
1:50pm 14ft 14s 10s 18 22 mph 1023.4mb 55f 58f
12:50pm 14ft 15s 11s 16 20 mph 1024mb 55f 57f
11:50am 12ft 15s 10s 11 16 mph 1024.5mb 55f 56f
10:50am 14ft 16s 11s 13 18 mph 1024.3mb 55f 56f
9:50am 13.5ft 15s 10s 11 13 mph 1024mb 55f 55f
8:50am 14ft 15s 11s 16 18 mph 1023.5mb 55f 55f
7:50am 13.5ft 16s 11s 13 18 mph 1023.2mb 55f 56f
6:50am 16ft 14s 11s 9 13 mph 1023.1mb 55f 55f
5:50am 15ft 16s 11s 11 16 mph 1022.7mb 55f 55f
4:50am 16ft 15s 11s 11 13 mph 1022.3mb 55f 56f
3:50am 17.5ft 16s 11s 11 16 mph 1022.1mb 55f 56f
2:50am 14.5ft 16s 10s 11 13 mph 1022.1mb 55f 56f
1:50am 15ft 16s 11s 16 18 mph 1021.7mb 55f 56f
12:50am 16ft 16s 11s 18 22 mph 1021.3mb 55f 56f
Fri 10/20 11:50pm 16.5ft 16s 11s 18 25 mph 1021.2mb 55f 57f
10:50pm 17.5ft 16s 11s 20 25 mph 1021.2mb 55f 57f
9:50pm 16ft 16s 11s 18 22 mph 1020.6mb 55f 57f
8:50pm 15.5ft 16s 11s 16 20 mph 1020.7mb 55f 57f
7:50pm 15ft 16s 11s 16 20 mph 1020.4mb 56f 57f
6:50pm 15.5ft 17s 11s 13 16 mph 1020.4mb 56f 57f
5:50pm 17ft 17s 12s 11 13 mph 1020.1mb 56f 58f
4:50pm 16ft 17s 11s 16 18 mph 1020.3mb 56f 58f
3:50pm 19ft 17s 12s 11 18 mph 1019.8mb 56f 58f
2:50pm 15.5ft 16s 12s 9 13 mph 1019.9mb 56f 58f
1:50pm 17.5ft 17s 12s 9 13 mph 1019.7mb 56f 58f
12:50pm 17ft 17s 13s 7 11 mph 1020.1mb 56f 58f
11:50am 15.5ft 19s 13s 7 9 mph 1020.2mb 56f 57f
10:50am 16.5ft 17s 12s 4 7 mph 1019.8mb 56f 57f
9:50am 14.5ft 17s 12s  -  4 mph 1019.6mb 55f 57f
8:50am 16.5ft 17s 13s  -  2 mph 1018.7mb 55f 56f
7:50am 14.5ft 15s 12s 2 4 mph 1018.3mb 55f 55f
6:50am 16.5ft 17s 12s 7 11 mph 1017.2mb 55f 55f
5:50am 19ft 17s 12s 9 11 mph 1016.8mb 55f 55f
4:50am 18.5ft 17s 12s 9 13 mph 1016.2mb 55f 56f
3:50am 17ft 17s 11s 11 16 mph 1015.5mb 55f 56f
2:50am 12.5ft 19s 10s 13 18 mph 1014.9mb 55f 56f
1:50am 11.5ft 19s 10s 20 25 mph 1014.5mb 55f 55f
12:50am 8ft 11s 10s 25 29 mph 1013.6mb 55f 56f
Thu 10/19 11:50pm 6ft 10s 9s 11 11 mph 1013mb 55f 58f
10:50pm 5.5ft 15s 10s 11 13 mph 1013.2mb 55f 58f
9:50pm 5ft 15s 10s 11 13 mph 1013.3mb 55f 57f
8:50pm 4.5ft 9s 9s 9 11 mph 1013.3mb 56f 57f
7:50pm 4ft 15s 9s 7 9 mph 1013.5mb 56f 57f
6:50pm 5ft 15s 9s 7 9 mph 1013.2mb 56f 57f
5:50pm 5ft 15s 9s 4 7 mph 1013.8mb 56f 57f
4:50pm 4.5ft 15s 8s 4 7 mph 1014.1mb 57f 57f